Weather observations for the past three days for
Salida - Monarch Pass
Metric (Imperial)
Date Time (mdt) Wind (kph) Vis. (km) Weather Sky Cond. Temperature (ºC) Relative Humidity Wind Chill (°C) Heat Index (°C) Pressure Precipitation (cm)
Air Dwpt 6 hour altimeter (cm) sea level (mb) 1 hr 3 hr 6 hr
Max. Min.
02 10:55 NW 6 16.09 Fair CLR 0 -10 47% 77.5 0.0
02 10:35 NW 6 16.09 Fair CLR -1 -10 51% 77.5 0.0
02 10:15 W 9 16.09 Fair CLR -1 -10 51% -4 77.47 0.0
02 09:55 W 7 16.09 Fair CLR -1 -9 55% -3 77.47 0.0
02 09:35 NW 9 G 17 16.09 Fair CLR -2 -9 59% -5 77.47 0.0
02 09:15 W 17 16.09 Fair CLR -2 -8 64% -7 77.44 0.0
02 08:55 W 17 16.09 Fair CLR -2 -9 59% -7 77.42 0.0
02 08:35 SW 17 16.09 Fair CLR -3 -9 64% -8 77.42 0.0
02 08:15 W 17 16.09 Fair CLR -3 -9 64% -8 77.42 0.0
02 07:55 W 15 16.09 Fair CLR -4 -9 69% -9 77.39 0.0
02 07:35 W 13 16.09 Fair CLR -5 -9 74% -10 77.39 0.0
02 07:15 W 13 16.09 Fair CLR -5 -10 68% -10 77.37 0.0
02 06:55 W 15 16.09 Fair CLR -5 -10 68% -10 77.37 0.0
02 06:35 W 15 16.09 Fair CLR -5 -10 68% -10 77.34 0.0
02 06:15 W 13 16.09 Fair CLR -5 -11 63% -10 77.34 0.0
02 05:55 W 13 16.09 Fair CLR -5 -11 63% -10 77.34 0.0
02 05:35 SW 7 16.09 Fair CLR -4 -12 54% -7 77.34 0.0
02 05:15 Calm 16.09 Fair CLR -4 -12 54% 77.34 0.0
02 04:55 E 9 0.00 Fair CLR -5 -11 63% -9 77.34 0.0
02 04:35 E 11 0.00 Fair CLR -5 -11 63% -9 77.34 0.0
02 04:15 E 11 0.00 Fair CLR -5 -11 63% -9 77.34 0.0
02 03:55 E 15 0.00 Fair CLR -5 -10 68% -10 77.32 0.0
02 03:35 E 13 0.00 Fair CLR -5 -10 68% -10 77.32 0.0
02 03:15 E 11 0.00 Fair CLR -5 -10 68% -9 77.32 0.0
02 02:55 E 9 0.00 Fair CLR -5 -10 68% -9 77.32 0.0
02 02:35 S 7 0.00 NULL NULL -5 -7 86% -8 77.32 0.0
02 02:15 SW 7 0.00 NULL NULL -6 -6 100% -9 77.34 0.0
02 01:55 S 7 0.00 NULL NULL -6 -6 100% -9 77.34 0.0
02 01:35 E 9 0.00 NULL NULL -5 -6 93% -9 77.34 0.0
02 01:15 E 15 0.00 NULL NULL -5 -6 93% -10 77.34 0.0
02 00:55 E 24 0.00 Overcast BKN005 BKN010 OVC050 -5 -5 100% -12 77.29 0.0
02 00:35 E 22 0.00 NULL NULL -5 -5 100% -11 77.29 0.0
02 00:16 E 20 0.00 Mostly Cloudy BKN002 BKN050 -5 -5 100% -11 77.29 0.0
01 23:55 E 24 0.00 Overcast BKN002 OVC050 -5 -5 100% -12 77.29 0.0
01 23:35 E 30 0.00 Overcast BKN002 BKN006 OVC050 -5 -5 100% -12 77.27 0.0
01 23:16 E 30 0.00 Overcast OVC002 -5 -5 100% -12 77.27 0.0
01 22:55 E 33 0.00 Overcast and Breezy OVC001 -5 -5 100% -13 77.24 0.0
01 22:35 E 39 0.00 Overcast and Breezy BKN003 BKN006 OVC015 -4 -5 93% -12 77.24 0.0
01 22:15 E 37 0.00 Breezy NULL -4 -5 93% -12 77.24 0.0
01 21:55 E 37 0.00 Overcast and Breezy BKN007 BKN014 OVC018 -4 -5 93% -12 77.24 0.0
01 21:35 E 39 0.00 Breezy NULL -4 -5 93% -12 77.19 0.0
01 21:15 E 41 0.00 Breezy NULL -4 -5 93% -12 77.19 0.0
01 20:55 E 43 G 52 0.00 Windy NULL -3 -5 86% -11 77.14 0.0
01 20:35 E 41 0.00 Breezy NULL -3 -6 80% -11 77.11 0.0
01 20:15 E 44 0.00 Mostly Cloudy and Windy SCT022 BKN031 BKN036 -3 -7 74% -11 77.11 0.0
01 19:55 E 37 0.00 Mostly Cloudy and Breezy SCT022 BKN032 BKN042 -3 -6 80% -11 77.11 0.0
01 19:15 E 46 G 61 0.00 Partly Cloudy and Windy SCT034 -2 -7 69% -10 77.01 0.0
01 18:55 E 50 0.00 Fair and Windy CLR -2 -8 64% -10 76.99 0.0
01 18:35 E 52 0.00 Fair and Windy CLR -2 -9 59% -10 76.96 0.0
01 18:15 E 41 G 50 0.00 Fair and Breezy CLR -2 -10 55% -10 77.01 0.0
01 17:55 E 41 G 46 0.00 Fair and Breezy CLR -2 -10 55% -10 77.01 0.0
01 17:35 E 41 G 52 0.00 Fair and Breezy CLR -2 -10 55% -10 76.99 0.0
01 17:15 E 41 0.00 Fair and Breezy CLR -2 -9 59% -10 76.99 0.0
01 16:55 E 39 G 54 0.00 Fair and Breezy CLR -2 -7 69% -9 76.99 0.0
01 16:35 E 35 0.00 Fair and Breezy CLR -2 -7 69% -9 76.99 0.0
01 16:15 E 39 0.00 Breezy NULL -3 -4 93% -11 76.99 0.0
01 15:55 E 33 0.00 Breezy NULL -3 -4 93% -10 76.99 0.0
01 15:35 E 37 0.00 Breezy NULL -3 -4 93% -11 76.99 0.0
01 15:15 E 39 0.00 Breezy NULL -3 -3 100% -11 77.01 0.0
01 14:55 E 33 0.00 Breezy NULL -3 -3 100% -10 77.01 0.0
01 14:35 E 35 0.00 Breezy NULL -3 -3 100% -10 77.01 0.0
01 14:15 E 37 0.00 Breezy NULL -3 -3 100% -11 77.01 0.0
01 13:55 Calm 0.00 NULL NULL -4 -4 100% 77.01 0.0
01 13:35 Calm 0.00 NULL NULL -3 -3 100% 76.99 0.0
01 13:15 Calm 0.00 NULL NULL -4 -4 100% 76.99 0.0
01 12:55 Calm 0.00 NULL NULL -4 -4 100% 76.99 0.0
01 12:35 Calm 0.00 NULL NULL -4 -4 100% 76.99 0.0
01 12:15 Calm 0.00 NULL NULL -5 -5 100% 76.99 0.0
01 11:55 Calm 0.00 NULL NULL -4 -5 93% 77.01 0.0
01 11:36 Calm 0.00 Overcast BKN002 OVC006 -4 -5 93% 77.01 0.0
01 11:15 Calm 0.00 Overcast BKN002 OVC006 -5 -5 100% 77.01 0.0
01 10:55 Calm 0.00 Overcast BKN002 OVC006 -5 -5 100% 76.99 0.0
01 10:35 Calm 0.00 Overcast BKN002 OVC005 -5 -5 100% 76.99 0.0
01 10:15 Calm 0.00 Overcast OVC002 -5 -5 100% 76.99 0.0
01 09:55 Calm 0.00 Overcast OVC002 -5 -5 100% 76.96 0.0
01 09:35 Calm 0.00 Overcast OVC002 -5 -5 100% 76.96 0.0
01 09:15 Calm 0.00 Overcast OVC002 -5 -6 93% 76.96 0.0
01 08:55 Calm 0.00 Overcast BKN002 OVC005 -6 -6 100% 76.94 0.0
01 08:35 Calm 0.00 Overcast OVC002 -6 -7 93% 76.91 0.0
01 08:15 Calm 0.00 Overcast OVC002 -6 -7 93% 76.91 0.0
01 07:55 Calm 0.00 Overcast OVC002 -6 -7 93% 76.91 0.0
01 07:35 Calm 0.00 Overcast OVC002 -7 -7 100% 76.89 0.0
01 07:15 Calm 0.00 Overcast OVC002 -7 -7 100% 76.89 0.0
01 06:55 Calm 0.00 Overcast OVC002 -7 -8 93% 76.89 0.0
01 06:35 Calm 0.00 Overcast OVC002 -7 -8 93% 76.86 0.0
01 06:15 Calm 0.00 Overcast OVC002 -7 -7 100% 76.86 0.0
01 05:55 Calm 0.00 Overcast OVC002 -7 -7 100% 76.84 0.0
01 05:35 Calm 0.00 Overcast OVC002 -7 -7 100% 76.84 0.0
01 05:15 Calm 0.00 Overcast OVC002 -7 -7 100% 76.84 0.0
01 04:55 Calm 0.00 Overcast OVC002 -7 -7 100% 76.84 0.0
01 04:35 Calm 0.00 Overcast OVC002 -7 -7 100% 76.84 0.0
01 04:15 Calm 0.00 Overcast OVC002 -7 -7 100% 76.84 0.0
01 03:55 Calm 0.00 Overcast OVC002 -6 -7 93% 76.84 0.0
01 03:35 Calm 0.00 Overcast OVC002 -7 -7 100% 76.84 0.0
01 03:15 E 37 0.00 Overcast and Breezy OVC002 -6 -7 93% -15 76.84 0.0
01 02:55 E 39 0.00 Overcast and Breezy OVC002 -6 -7 93% -15 76.84 0.0
01 02:35 E 37 0.00 Overcast and Breezy OVC002 -6 -7 93% -15 76.84 0.0
01 02:15 E 33 0.00 Overcast and Breezy OVC002 -6 -7 93% -14 76.86 0.0
01 01:55 E 35 0.00 Overcast and Breezy OVC002 -6 -7 93% -14 76.86 0.0
01 01:35 E 35 0.00 Overcast and Breezy OVC002 -6 -7 93% -14 76.86 0.0
01 01:15 Calm 0.00 Overcast OVC002 -6 -7 93% 76.89 0.0
01 00:55 E 39 0.00 Overcast and Breezy OVC002 -6 -7 93% -15 76.89 0.0
01 00:35 Calm 0.00 Overcast OVC002 -6 -6 100% 76.89 0.0
01 00:15 Calm 0.00 Overcast OVC002 -6 -6 100% 76.89 0.0
30 23:55 Calm 0.00 Overcast OVC002 -6 -6 100% 76.89 0.0
30 23:35 Calm 0.00 Overcast OVC002 -6 -6 100% 76.89 0.0
30 23:15 E 37 G 52 0.00 Overcast and Breezy OVC002 -6 -6 100% -15 76.89 0.0
30 22:55 E 35 G 41 0.00 Overcast and Breezy OVC002 -6 -6 100% -14 76.91 0.0
30 22:35 E 41 G 48 0.00 Overcast and Breezy OVC002 -5 -6 93% -14 76.89 0.0
30 22:15 E 37 0.00 Overcast and Breezy OVC002 -5 -6 93% -13 76.91 0.0
30 21:55 E 33 G 57 0.00 Overcast and Breezy OVC002 -5 -6 93% -13 76.91 0.0
30 21:35 Calm 0.00 Overcast OVC002 -5 -6 93% 76.86 0.0
30 21:15 Calm 0.00 Overcast OVC002 -6 -6 100% 76.86 0.0
30 20:55 Calm 0.00 Overcast OVC002 -5 -6 93% 76.81 0.0
30 20:35 Calm 0.00 Overcast OVC002 -5 -6 93% 76.84 0.0
30 20:15 Calm 0.00 Overcast OVC002 -5 -5 100% 76.84 0.0
30 19:55 Calm 0.00 Overcast OVC002 -5 -5 100% 76.81 0.0
30 19:35 Calm 0.00 Overcast OVC002 -5 -5 100% 76.78 0.0
30 19:15 Calm 0.00 Overcast OVC002 -5 -5 100% 76.78 0.0
30 18:55 Calm 0.00 Overcast OVC002 -5 -5 100% 76.76 0.0
30 18:35 Calm 0.00 Overcast OVC002 -4 -5 93% 76.78 0.0
30 18:15 Calm 0.00 Overcast OVC002 -5 -5 100% 76.78 0.0
30 17:55 Calm 0.00 Overcast OVC002 -5 -5 100% 76.76 0.0
30 17:35 Calm 0.00 Overcast OVC002 -5 -5 100% 76.73 0.0
30 17:15 Calm 0.00 Overcast OVC002 -4 -4 100% 76.71 0.0
30 16:55 Calm 0.24 Light Snow OVC002 -4 -4 100% 76.76 0.0
30 16:35 Calm 0.24 Freezing Fog OVC002 -3 -4 93% 76.76 0.0
30 16:15 Calm 0.24 Freezing Fog OVC002 -3 -3 100% 76.78 0.0
30 15:55 E 26 0.24 Freezing Fog OVC002 -3 -3 100% -9 76.76 0.0
30 15:35 E 19 0.24 Freezing Fog OVC002 -3 -3 100% -8 76.78 0.0
30 15:15 E 26 0.24 Freezing Fog OVC002 -3 -3 100% -9 76.78 0.0
30 14:55 E 17 0.24 Freezing Fog OVC002 -2 -2 100% -7 76.81 0.0
30 14:35 SE 7 0.24 Freezing Fog OVC002 -2 -2 100% -4 76.81 0.0
30 14:15 Calm 0.80 Freezing Fog BKN002 BKN020 OVC033 -2 -2 100% 76.81 0.0
30 13:55 NE 7 0.24 Freezing Fog OVC002 -2 -2 100% -4 76.81 0.0
30 13:35 N 11 11.27 Light Snow BKN004 BKN010 BKN022 -1 -1 100% -4 76.81 0.0
30 13:15 W 20 G 30 3.22 Light Snow OVC004 -2 -2 100% -7 76.84 0.0
30 12:55 W 26 G 31 2.01 Light Snow SCT004 BKN016 OVC022 -3 -3 100% -9 76.84 0.0
30 12:35 NW 19 16.09 Overcast SCT018 BKN024 OVC041 -2 -2 100% -7 76.84 0.0
30 12:15 N 7 16.09 Overcast SCT011 BKN024 OVC050 -2 -2 100% -4 76.86 0.0
30 11:55 NE 20 G 30 2.01 Light Snow BKN001 OVC008 -2 -2 100% -7 76.86 0.0
30 11:35 Calm 0.24 Freezing Fog OVC001 -3 -3 100% 76.86 0.0
30 11:15 E 19 0.24 Freezing Fog OVC001 -3 -3 100% -8 76.84 0.0
30 10:55 Calm 0.24 Light Snow OVC001 -3 -4 93% 76.84 0.0
30 10:35 E 13 0.24 Freezing Fog OVC001 -3 -3 100% -7 76.86 0.0
30 10:15 E 11 0.00 Overcast OVC001 -3 -3 100% -7 76.84 0.0
30 09:55 Calm 0.00 Overcast OVC001 -3 -3 100% 76.84 0.0
30 09:35 Calm 0.00 Overcast OVC001 -4 -4 100% 76.84 0.0
30 09:15 Calm 0.00 Overcast OVC001 -4 -4 100% 76.84 0.0
30 08:55 E 26 0.00 Overcast OVC001 -4 -4 100% -11 76.86 0.0
30 08:35 E 19 0.00 Overcast BKN001 OVC006 -4 -4 100% -10 76.86 0.0
30 08:15 SE 11 0.00 Overcast BKN001 OVC007 -4 -4 100% -8 76.89 0.0
30 07:55 E 13 0.00 Overcast OVC001 -5 -5 100% -10 76.91 0.0
30 07:35 E 15 0.00 Overcast OVC001 -5 -5 100% -10 76.89 0.0
30 07:15 E 22 0.00 Overcast OVC001 -5 -5 100% -11 76.86 0.0
30 06:35 E 20 0.24 Light Snow OVC001 -5 -5 100% -11 76.84 0.0
30 06:15 E 19 0.24 Freezing Fog OVC001 -5 -5 100% -11 76.84 0.0
30 05:55 E 17 0.24 Freezing Fog OVC001 -5 -5 100% -10 76.84 0.0
30 05:35 E 17 0.24 Freezing Fog OVC001 -5 -5 100% -10 76.86 0.0
30 05:15 E 13 0.40 Freezing Fog OVC001 -5 -5 100% -10 76.86 0.0
30 04:55 E 13 0.40 Freezing Fog OVC001 -5 -5 100% -10 76.89 0.0
30 04:35 E 11 0.80 Freezing Fog OVC001 -5 -5 100% -9 76.89 0.0
30 04:15 E 19 0.24 Freezing Fog OVC001 -5 -5 100% -11 76.89 0.0
30 03:55 E 17 0.24 Freezing Fog OVC001 -5 -5 100% -10 76.89 0.0
30 03:35 E 9 16.09 Fair CLR -5 -6 93% -9 76.91 0.0
30 03:15 NE 7 16.09 Partly Cloudy SCT050 SCT075 SCT080 -5 -5 100% -8 76.91 0.0
30 02:55 NW 9 16.09 Overcast SCT009 BKN060 OVC075 -5 -5 100% -9 76.94 0.0
30 02:35 NW 11 4.83 Light Snow BKN009 BKN016 OVC044 -4 -4 100% -8 76.96 0.0
30 02:15 NW 11 11.27 Light Snow SCT011 BKN029 OVC085 -4 -4 100% -8 76.96 0.0
30 01:55 NW 9 16.09 Light Snow SCT015 BKN033 OVC060 -4 -4 100% -7 76.96 0.0
30 01:35 N 7 11.27 Light Snow SCT015 BKN032 OVC047 -4 -4 100% -7 76.99 0.0
30 01:15 N 9 16.09 Overcast SCT001 BKN049 OVC075 -4 -4 100% -7 76.99 0.0
30 00:55 N 6 0.40 Light Snow OVC001 -3 -3 100% 76.99 0.0
30 00:35 NE 7 0.24 Light Snow OVC001 -3 -3 100% -6 76.99 0.0
30 00:15 NE 9 0.40 Light Snow OVC001 -3 -3 100% -6 76.99 0.0
29 23:55 E 7 0.80 Light Snow BKN003 OVC014 -3 -3 100% -6 77.01 0.0
29 23:35 N 7 0.80 Light Snow BKN002 OVC008 -3 -3 100% -6 77.04 0.0
29 23:15 E 7 0.40 Freezing Fog OVC002 -3 -3 100% -6 77.04 0.0
29 22:55 E 11 0.24 Light Snow OVC002 -3 -3 100% -7 77.06 0.0
29 22:35 E 6 0.40 Light Snow OVC002 -2 -2 100% 77.06 0.0
29 22:15 E 7 0.24 Light Snow OVC002 -2 -2 100% -4 77.11 0.0
29 21:55 E 17 0.24 Snow OVC002 -2 -2 100% -7 77.09 0.0
29 21:35 E 22 0.80 Light Snow BKN002 BKN014 OVC035 -2 -3 93% -8 77.06 0.0
29 21:15 NE 15 16.09 Overcast SCT016 BKN038 OVC065 -2 -6 74% -6 77.06 0.0
29 20:55 N 11 11.27 Light Snow SCT014 BKN018 OVC033 -2 -6 74% -6 77.06 0.0
29 20:35 NE 13 16.09 Light Snow SCT023 BKN034 OVC041 -1 -7 64% -5 77.04 0.0
29 20:15 NW 22 G 33 16.09 Overcast SCT024 BKN041 OVC050 -1 -8 59% -6 77.01 0.0
29 19:55 N 13 16.09 Overcast BKN041 OVC050 0 -9 51% -4 76.96 0.0
29 19:35 NW 17 G 37 16.09 Overcast SCT031 BKN041 OVC050 0 -9 51% -4 76.96 0.0
29 19:15 N 26 16.09 Overcast SCT027 BKN044 OVC050 0 -9 51% -6 76.96 0.0
29 18:55 NW 20 G 30 16.09 Overcast SCT039 BKN048 OVC060 0 -10 47% -5 76.96 0.0
29 18:35 NW 26 G 46 16.09 Overcast SCT047 OVC050 1 -10 44% -4 76.94 0.0
29 18:15 N 31 16.09 Overcast SCT049 SCT060 OVC075 1 -11 41% -5 76.94 0.0
29 17:55 NW 37 G 61 16.09 Overcast and Breezy BKN060 OVC070 1 -12 38% -5 76.91 0.0
29 17:35 NW 48 G 63 16.09 Mostly Cloudy and Windy SCT060 BKN070 2 -12 35% -5 76.89 0.0
29 17:15 W 35 G 59 16.09 Overcast and Breezy BKN070 OVC090 3 -13 30% -3 76.89 0.0
29 16:55 W 46 G 59 16.09 Overcast and Windy SCT050 BKN060 OVC085 2 -12 35% -5 76.86 0.0
29 16:35 NW 37 G 57 16.09 Mostly Cloudy and Breezy BKN065 BKN070 2 -13 32% -4 76.89 0.0
29 16:15 NW 52 G 59 16.09 Mostly Cloudy and Windy BKN065 BKN075 2 -13 32% -5 76.89 0.0
29 15:55 NW 48 G 65 16.09 Mostly Cloudy and Windy BKN065 BKN075 2 -12 35% -5 76.89 0.0
29 15:35 NW 44 G 57 16.09 Partly Cloudy and Windy SCT070 SCT075 2 -13 32% -5 76.89 0.0
29 15:15 W 54 G 74 16.09 Partly Cloudy and Windy SCT050 2 -12 35% -5 76.91 0.0
29 14:55 NW 46 G 65 16.09 Partly Cloudy and Windy SCT047 SCT060 SCT070 2 -11 38% -5 76.91 0.0
29 14:35 NW 63 G 78 16.09 Mostly Cloudy and Windy SCT022 SCT042 BKN055 1 -12 38% -7 76.91 0.0
29 14:15 W 24 G 72 16.09 Overcast SCT017 BKN060 OVC085 0 -11 44% -5 76.94 0.0
29 13:55 NW 61 G 78 16.09 Mostly Cloudy and Windy SCT047 SCT060 BKN070 1 -13 35% -7 76.91 0.0
29 13:35 NW 46 G 57 16.09 Mostly Cloudy and Windy BKN050 BKN065 1 -11 41% -6 76.94 0.0
29 13:15 NW 52 G 63 16.09 Partly Cloudy and Windy SCT047 SCT055 SCT075 1 -11 41% -6 76.94 0.0
29 12:55 NW 54 G 69 16.09 Mostly Cloudy and Windy SCT047 BKN065 BKN075 1 -11 41% -7 76.94 0.0
29 12:35 W 37 G 57 16.09 Partly Cloudy and Breezy SCT047 SCT050 1 -10 44% -5 76.96 0.0
29 12:15 NW 50 G 63 16.09 Partly Cloudy and Windy SCT044 SCT050 0 -10 47% -8 76.96 0.0
29 11:55 NW 44 G 59 16.09 Partly Cloudy and Windy SCT044 1 -10 44% -6 76.99 0.0
29 11:35 NW 37 G 50 16.09 Partly Cloudy and Breezy SCT050 SCT065 0 -11 44% -7 77.01 0.0
29 11:15 NW 37 G 46 16.09 Mostly Cloudy and Breezy BKN045 BKN050 0 -10 47% -7 77.01 0.0
Date Time (mdt) Wind (kph) Vis. (km) Weather Sky Cond. Air Dwpt Max. Min. Relative Humidity Wind Chill (°C) Heat Index (°C) altimeter (cm) sea level (mb) 1 hr 3 hr 6 hr
6 hour
Temperature (ºC) Pressure Precipitation (cm)